Time;durP1;ratioP1;P1;durP2;ratioP2;P2;SDS_P1;SDS_P2;PMS_P1;PMS_P2;Temp;Humidity;BMP_temperature;BMP_pressure;BME280_temperature;BME280_humidity;BME280_pressure;Samples;Min_cycle;Max_cycle;Signal;HPM_P1;HPM_P2
2021/03/15 00:01:01;;;;;;;19.67;9.20;;;;;;;0.54;85.32;98911.81;5076769;28;20044;-55
2021/03/15 00:03:26;;;;;;;17.83;8.88;;;;;;;0.53;84.91;98910.94;5058917;28;20433;-54
2021/03/15 00:05:52;;;;;;;20.50;9.32;;;;;;;0.54;84.45;98915.22;5076423;28;20056;-55
2021/03/15 00:08:18;;;;;;;18.75;9.68;;;;;;;0.51;83.98;98907.50;5076627;28;20352;-55
2021/03/15 00:10:44;;;;;;;24.67;10.60;;;;;;;0.49;83.74;98909.22;5076169;28;20489;-54
2021/03/15 00:13:10;;;;;;;16.42;8.82;;;;;;;0.51;83.86;98916.94;5076808;28;20059;-54
2021/03/15 00:15:35;;;;;;;15.88;8.82;;;;;;;0.48;83.63;98910.06;5075585;28;20048;-54
2021/03/15 00:18:02;;;;;;;18.60;9.85;;;;;;;0.45;83.34;98921.22;5076513;28;20072;-55
2021/03/15 00:20:28;;;;;;;18.60;9.98;;;;;;;0.45;83.56;98922.94;5076274;28;20051;-54
2021/03/15 00:22:53;;;;;;;19.13;10.48;;;;;;;0.48;83.63;98928.09;5076223;28;20037;-54
2021/03/15 00:25:20;;;;;;;19.92;10.25;;;;;;;0.43;83.51;98932.41;5075345;28;20036;-55
2021/03/15 00:27:46;;;;;;;23.17;12.52;;;;;;;0.41;84.09;98934.13;5076152;28;20041;-54
2021/03/15 00:30:14;;;;;;;18.98;10.35;;;;;;;0.42;84.16;98933.25;5075266;28;20055;-54
2021/03/15 00:32:40;;;;;;;19.08;10.23;;;;;;;0.43;83.81;98935.84;5076221;28;20052;-55
2021/03/15 00:35:07;;;;;;;18.52;10.15;;;;;;;0.42;83.94;98936.72;5076342;28;20048;-54
2021/03/15 00:37:33;;;;;;;20.08;10.02;;;;;;;0.41;83.88;98940.13;5076317;28;20044;-54
2021/03/15 00:39:58;;;;;;;14.45;9.35;;;;;;;0.40;84.08;98934.97;5075252;28;20037;-55
2021/03/15 00:42:24;;;;;;;22.13;11.23;;;;;;;0.36;84.37;98934.13;5075080;28;20048;-55
2021/03/15 00:44:50;;;;;;;20.75;9.65;;;;;;;0.34;84.78;98938.41;5058769;28;20036;-55
2021/03/15 00:47:15;;;;;;;21.15;10.02;;;;;;;0.37;84.62;98937.53;5075219;28;20044;-55
2021/03/15 00:49:41;;;;;;;21.40;10.98;;;;;;;0.37;84.88;98935.81;5075952;28;20429;-55
2021/03/15 00:52:07;;;;;;;17.42;9.45;;;;;;;0.39;85.23;98928.97;5058715;28;20054;-55
2021/03/15 00:54:33;;;;;;;17.77;10.15;;;;;;;0.39;85.04;98928.97;5075089;28;20048;-55
2021/03/15 00:57:02;;;;;;;25.27;11.93;;;;;;;0.40;84.91;98919.53;5075009;28;20045;-54
2021/03/15 00:59:28;;;;;;;26.25;12.02;;;;;;;0.42;84.79;98922.94;5074973;28;20089;-54
2021/03/15 01:01:54;;;;;;;22.77;12.40;;;;;;;0.43;84.79;98924.69;5074982;28;20098;-54
2021/03/15 01:04:20;;;;;;;23.92;12.40;;;;;;;0.44;84.89;98923.81;5058305;28;20041;-55
2021/03/15 01:07:10;;;;;;;26.33;11.98;;;;;;;0.41;85.20;98922.09;5044925;28;20045;-54
2021/03/15 01:09:39;;;;;;;21.02;11.60;;;;;;;0.42;84.91;98925.50;5058719;28;20436;-54
2021/03/15 01:12:11;;;;;;;20.38;11.27;;;;;;;0.38;84.55;98928.94;5074823;28;20392;-54
2021/03/15 01:14:37;;;;;;;22.25;10.60;;;;;;;0.39;84.36;98921.25;5075086;28;20083;-55
2021/03/15 01:17:11;;;;;;;20.13;12.15;;;;;;;0.35;84.27;98916.91;5075113;28;20121;-54
2021/03/15 01:19:37;;;;;;;19.35;11.85;;;;;;;0.32;84.21;98911.75;5074747;28;20449;-54
2021/03/15 01:22:03;;;;;;;21.73;11.73;;;;;;;0.32;84.18;98911.75;5077801;28;20131;-54
2021/03/15 01:24:29;;;;;;;16.92;10.88;;;;;;;0.28;84.12;98912.63;5079519;28;20564;-54
2021/03/15 01:26:54;;;;;;;24.13;10.93;;;;;;;0.26;83.90;98906.63;5078834;28;20062;-54
2021/03/15 01:29:20;;;;;;;19.88;10.55;;;;;;;0.22;83.69;98917.75;5079448;28;20409;-54
2021/03/15 01:31:46;;;;;;;24.02;10.95;;;;;;;0.15;83.81;98908.28;5061857;28;20437;-54
2021/03/15 01:34:11;;;;;;;22.27;10.93;;;;;;;0.11;84.23;98902.28;5078721;28;20139;-54
2021/03/15 01:36:37;;;;;;;24.92;11.30;;;;;;;0.15;84.43;98910.88;5079819;28;20041;-54
2021/03/15 01:39:04;;;;;;;21.13;11.82;;;;;;;0.14;84.61;98904.88;5079139;28;20048;-55
2021/03/15 01:41:29;;;;;;;21.00;11.75;;;;;;;0.14;84.80;98904.88;5079124;28;20518;-55
2021/03/15 01:43:55;;;;;;;20.52;10.27;;;;;;;0.14;84.90;98899.72;5079348;28;20052;-54
2021/03/15 01:46:21;;;;;;;20.17;11.45;;;;;;;0.13;85.07;98905.72;5079848;28;20070;-54
2021/03/15 01:48:47;;;;;;;24.80;13.48;;;;;;;0.09;85.43;98897.97;5078416;28;20056;-54
2021/03/15 01:51:13;;;;;;;28.30;15.18;;;;;;;0.13;85.07;98899.69;5078003;28;20441;-55
2021/03/15 01:53:39;;;;;;;30.83;14.07;;;;;;;0.11;85.27;98897.13;5079173;28;20070;-54
2021/03/15 01:56:05;;;;;;;25.88;14.90;;;;;;;0.13;85.08;98897.13;5078298;28;20059;-54
2021/03/15 01:58:31;;;;;;;32.22;14.52;;;;;;;0.03;86.25;98892.81;5078834;28;20049;-54
2021/03/15 02:00:56;;;;;;;24.05;13.23;;;;;;;0.08;85.93;98891.97;5061577;28;20050;-55
2021/03/15 02:03:22;;;;;;;27.02;13.35;;;;;;;0.02;86.25;98899.69;5079043;28;20049;-55
2021/03/15 02:05:48;;;;;;;25.10;12.60;;;;;;;0.05;86.55;98896.25;5078594;28;20060;-55
2021/03/15 02:08:14;;;;;;;22.40;12.73;;;;;;;0.01;86.62;98895.41;5061731;28;20040;-54
2021/03/15 02:10:39;;;;;;;26.67;13.52;;;;;;;0.03;86.57;98897.97;5077969;28;20076;-54
2021/03/15 02:13:17;;;;;;;25.15;12.63;;;;;;;0.04;86.01;98894.56;5078571;28;20044;-54
2021/03/15 02:16:04;;;;;;;27.95;13.13;;;;;;;0.00;85.93;98898.84;5078009;28;20078;-54
2021/03/15 02:18:32;;;;;;;24.85;12.45;;;;;;;-0.03;85.81;98893.69;5078513;28;20056;-54
2021/03/15 02:21:01;;;;;;;20.27;12.18;;;;;;;-0.06;85.68;98891.09;5078762;28;20376;-54
2021/03/15 02:23:28;;;;;;;22.52;12.05;;;;;;;-0.08;85.69;98891.06;5078653;28;20044;-55
2021/03/15 02:26:12;;;;;;;23.35;12.90;;;;;;;-0.10;85.67;98886.75;5061965;28;20110;-55
2021/03/15 02:28:47;;;;;;;25.38;11.25;;;;;;;-0.16;85.89;98885.06;5078653;28;20131;-55
2021/03/15 02:31:27;;;;;;;19.65;10.98;;;;;;;-0.15;85.47;98883.34;5078471;28;20041;-54
2021/03/15 02:33:59;;;;;;;23.60;12.35;;;;;;;-0.18;85.44;98883.31;5076184;28;20128;-54
2021/03/15 02:36:25;;;;;;;21.17;11.70;;;;;;;-0.22;85.29;98879.88;5077340;28;20037;-54
2021/03/15 02:38:50;;;;;;;24.38;13.00;;;;;;;-0.26;84.90;98881.59;5077300;28;20115;-54
2021/03/15 02:41:18;;;;;;;31.23;14.23;;;;;;;-0.27;85.29;98881.56;5078123;28;20052;-54
2021/03/15 02:43:48;;;;;;;30.65;15.07;;;;;;;-0.27;85.81;98889.28;5060822;28;20326;-54
2021/03/15 02:46:18;;;;;;;30.75;15.13;;;;;;;-0.29;85.58;98883.28;5060684;28;20044;-54
2021/03/15 02:48:45;;;;;;;30.92;15.18;;;;;;;-0.35;85.26;98881.53;5077411;28;20048;-54
2021/03/15 02:51:11;;;;;;;21.70;13.77;;;;;;;-0.32;85.60;98891.00;5060329;28;20040;-54
2021/03/15 02:53:37;;;;;;;25.17;14.57;;;;;;;-0.37;85.38;98892.69;5077797;28;20052;-54
2021/03/15 02:56:07;;;;;;;28.02;13.95;;;;;;;-0.34;85.06;98887.53;5061245;28;20048;-54
2021/03/15 02:58:33;;;;;;;29.33;13.07;;;;;;;-0.40;84.81;98887.50;5060436;28;20359;-55
2021/03/15 03:00:58;;;;;;;26.30;12.52;;;;;;;-0.38;84.86;98884.09;5060509;28;20056;-54
2021/03/15 03:03:24;;;;;;;26.27;13.70;;;;;;;-0.43;84.65;98893.50;5077032;28;20045;-54
2021/03/15 03:05:51;;;;;;;24.55;12.57;;;;;;;-0.46;84.13;98890.91;5077385;28;20060;-56
2021/03/15 03:08:17;;;;;;;24.45;13.23;;;;;;;-0.45;84.29;98892.66;5077795;28;20126;-54
2021/03/15 03:10:43;;;;;;;24.23;14.18;;;;;;;-0.48;84.46;98878.06;5077825;28;20053;-54
2021/03/15 03:13:10;;;;;;;27.33;14.60;;;;;;;-0.52;85.05;98889.19;5060006;28;20052;-54
2021/03/15 03:15:35;;;;;;;26.98;14.68;;;;;;;-0.53;85.33;98890.03;5077136;28;20052;-55
2021/03/15 03:18:02;;;;;;;30.45;13.93;;;;;;;-0.58;84.36;98891.75;5076450;28;20452;-54
2021/03/15 03:20:28;;;;;;;25.27;13.18;;;;;;;-0.60;84.02;98892.56;5077867;28;20040;-54
2021/03/15 03:22:54;;;;;;;26.45;13.48;;;;;;;-0.62;84.07;98896.84;5077501;28;20062;-55
2021/03/15 03:25:22;;;;;;;22.25;13.63;;;;;;;-0.64;83.95;98889.13;5076582;28;20091;-55
2021/03/15 03:27:53;;;;;;;30.25;15.55;;;;;;;-0.65;83.95;98892.56;5076532;28;20067;-54
2021/03/15 03:30:30;;;;;;;33.75;15.88;;;;;;;-0.79;85.20;98886.47;5077233;28;20068;-54
2021/03/15 03:32:57;;;;;;;27.42;14.50;;;;;;;-0.77;85.46;98887.34;5076402;28;20044;-54
2021/03/15 03:35:23;;;;;;;29.90;15.23;;;;;;;-0.80;85.95;98897.59;5059718;28;20053;-54
2021/03/15 03:37:48;;;;;;;27.10;14.98;;;;;;;-0.78;85.95;98898.47;5076261;28;20052;-55
2021/03/15 03:40:15;;;;;;;25.05;13.50;;;;;;;-0.79;85.51;98896.75;5077180;28;20071;-54
2021/03/15 03:42:40;;;;;;;31.73;15.07;;;;;;;-0.82;86.12;98897.59;5075954;28;20060;-54
2021/03/15 03:45:07;;;;;;;25.27;13.27;;;;;;;-0.81;86.39;98893.31;5076668;28;20049;-54
2021/03/15 03:47:33;;;;;;;27.15;15.85;;;;;;;-0.82;86.30;98896.72;5076755;28;20051;-55
2021/03/15 03:49:59;;;;;;;26.67;13.50;;;;;;;-0.81;86.09;98899.31;5076755;28;20040;-55
2021/03/15 03:52:26;;;;;;;24.80;13.40;;;;;;;-0.83;85.59;98895.88;5059209;28;20341;-53
2021/03/15 03:54:51;;;;;;;27.67;14.48;;;;;;;-0.84;85.65;98906.16;5059316;28;20048;-55
2021/03/15 03:57:31;;;;;;;25.63;13.65;;;;;;;-0.85;85.99;98910.41;5075959;28;20057;-54
2021/03/15 04:00:14;;;;;;;24.90;13.93;;;;;;;-0.87;86.77;98907.00;5059419;28;20053;-55
2021/03/15 04:02:56;;;;;;;27.10;13.32;;;;;;;-0.87;86.58;98899.28;5075966;28;20052;-55
2021/03/15 04:05:24;;;;;;;23.75;13.50;;;;;;;-0.90;86.24;98899.25;5075430;28;20067;-54
2021/03/15 04:08:11;;;;;;;24.38;12.55;;;;;;;-0.92;85.94;98898.38;5076459;28;20048;-55
2021/03/15 04:10:36;;;;;;;26.75;13.93;;;;;;;-0.97;85.86;98900.06;5076150;28;20052;-54
2021/03/15 04:13:10;;;;;;;25.10;12.90;;;;;;;-0.93;85.81;98900.97;5075751;28;20071;-54
2021/03/15 04:15:40;;;;;;;30.23;13.93;;;;;;;-0.93;85.72;98906.94;5075714;28;20052;-54
2021/03/15 04:18:06;;;;;;;25.98;12.98;;;;;;;-0.93;85.85;98903.53;5076465;28;20052;-54
2021/03/15 04:20:33;;;;;;;25.48;12.48;;;;;;;-0.89;85.55;98908.69;5075652;28;20096;-55
2021/03/15 04:23:00;;;;;;;39.75;16.20;;;;;;;-0.87;85.26;98911.28;5076492;28;20045;-54
2021/03/15 04:25:27;;;;;;;82.80;28.98;;;;;;;-0.91;85.06;98910.41;5075341;28;20044;-55
2021/03/15 04:27:53;;;;;;;110.30;37.63;;;;;;;-0.95;84.44;98908.63;5059205;28;20041;-54
2021/03/15 04:30:20;;;;;;;134.75;47.63;;;;;;;-1.00;84.20;98912.91;5075519;28;20135;-54
2021/03/15 04:32:50;;;;;;;191.68;73.75;;;;;;;-1.04;84.23;98911.13;5075195;28;20115;-55
2021/03/15 04:35:17;;;;;;;221.93;85.00;;;;;;;-1.06;84.42;98911.16;5075190;28;20052;-55
2021/03/15 04:37:42;;;;;;;147.88;64.35;;;;;;;-1.05;84.43;98912.84;5075470;28;20055;-55
2021/03/15 04:40:08;;;;;;;123.20;49.28;;;;;;;-1.11;84.44;98909.38;5058563;28;20044;-55
2021/03/15 04:42:34;;;;;;;178.25;59.47;;;;;;;-1.07;84.72;98922.28;5058608;28;20044;-55
2021/03/15 04:45:01;;;;;;;180.50;61.53;;;;;;;-1.03;84.83;98918.88;5076215;28;20129;-54
2021/03/15 04:47:26;;;;;;;132.05;49.53;;;;;;;-1.02;85.16;98918.03;5075055;28;20345;-55
2021/03/15 04:49:52;;;;;;;87.82;35.47;;;;;;;-0.93;85.35;98924.94;5076136;28;20052;-54
2021/03/15 04:52:18;;;;;;;77.53;32.42;;;;;;;-0.92;85.42;98931.81;5074937;28;20049;-54
2021/03/15 04:54:44;;;;;;;67.38;30.60;;;;;;;-0.87;85.78;98926.72;5058635;28;20063;-54
2021/03/15 04:57:11;;;;;;;112.32;44.15;;;;;;;-0.83;86.10;98929.31;5077542;28;20126;-54
2021/03/15 04:59:36;;;;;;;109.75;46.20;;;;;;;-0.75;86.40;98929.34;5080027;28;20044;-54
2021/03/15 05:02:02;;;;;;;99.85;40.33;;;;;;;-0.64;86.61;98932.00;5062484;28;20463;-54
2021/03/15 05:04:28;;;;;;;88.05;39.25;;;;;;;-0.53;86.49;98936.34;5062470;28;20053;-55
2021/03/15 05:06:53;;;;;;;72.70;33.47;;;;;;;-0.47;86.45;98926.06;5079616;28;20417;-55
2021/03/15 05:09:19;;;;;;;68.93;29.15;;;;;;;-0.38;86.42;98937.28;5078970;28;20426;-54
2021/03/15 05:11:45;;;;;;;45.15;22.55;;;;;;;-0.32;86.44;98925.31;5079127;28;20123;-54
2021/03/15 05:14:11;;;;;;;37.55;19.23;;;;;;;-0.27;86.60;98928.75;5079744;28;20041;-54
2021/03/15 05:16:37;;;;;;;30.85;16.63;;;;;;;-0.19;86.67;98921.06;5062524;28;20048;-54
2021/03/15 05:19:08;;;;;;;34.50;17.83;;;;;;;-0.08;86.45;98934.84;5078992;28;20118;-54
2021/03/15 05:21:34;;;;;;;34.67;16.83;;;;;;;-0.03;86.42;98943.44;5078947;28;20040;-54
2021/03/15 05:23:59;;;;;;;40.10;20.77;;;;;;;0.03;86.35;98932.28;5078936;28;20052;-54
2021/03/15 05:26:25;;;;;;;39.45;20.40;;;;;;;0.12;86.33;98932.31;5078882;28;20068;-55
2021/03/15 05:28:51;;;;;;;41.42;20.52;;;;;;;0.21;86.26;98936.66;5078823;28;20452;-55
2021/03/15 05:31:17;;;;;;;41.03;20.23;;;;;;;0.33;86.00;98938.41;5078728;28;20040;-54
2021/03/15 05:33:43;;;;;;;42.60;18.00;;;;;;;0.32;85.89;98940.09;5062121;28;20418;-54
2021/03/15 05:36:09;;;;;;;40.30;19.05;;;;;;;0.43;85.74;98947.88;5045471;28;20146;-55
2021/03/15 05:38:36;;;;;;;31.42;15.82;;;;;;;0.41;85.65;98949.56;5062092;28;20048;-55
2021/03/15 05:41:02;;;;;;;39.95;19.90;;;;;;;0.42;85.37;98944.44;5045360;28;20052;-54
2021/03/15 05:43:33;;;;;;;43.65;22.35;;;;;;;0.47;85.17;98945.28;5061789;28;20051;-55
2021/03/15 05:46:24;;;;;;;42.65;20.75;;;;;;;0.46;85.03;98950.47;5079334;28;20060;-54
2021/03/15 05:49:11;;;;;;;29.77;15.98;;;;;;;0.47;84.97;98947.00;5079876;28;20052;-54
2021/03/15 05:51:42;;;;;;;26.42;14.45;;;;;;;0.46;84.84;98945.31;5079233;28;20110;-54
2021/03/15 05:54:28;;;;;;;26.00;14.05;;;;;;;0.51;84.91;98945.28;5079293;28;20067;-54
2021/03/15 05:57:20;;;;;;;25.20;15.45;;;;;;;0.75;85.30;98937.59;5078355;28;20063;-54
2021/03/15 06:00:10;;;;;;;22.90;14.30;;;;;;;1.23;85.48;98932.41;5078934;28;20044;-55
2021/03/15 06:03:04;;;;;;;21.20;13.20;;;;;;;1.80;84.59;98931.41;5078264;28;20053;-54
2021/03/15 06:05:30;;;;;;;28.73;15.70;;;;;;;2.34;84.16;98924.28;5077769;28;20052;-54
2021/03/15 06:08:06;;;;;;;24.33;14.15;;;;;;;2.70;82.31;98927.47;5078650;28;20060;-55
2021/03/15 06:10:42;;;;;;;28.33;15.18;;;;;;;2.94;81.48;98931.59;5079287;28;20041;-54
2021/03/15 06:13:13;;;;;;;29.80;15.23;;;;;;;3.23;80.87;98933.91;5077811;28;20049;-55
2021/03/15 06:15:43;;;;;;;34.28;17.05;;;;;;;3.48;79.48;98931.97;5078317;28;20481;-54
2021/03/15 06:18:10;;;;;;;37.95;18.20;;;;;;;4.11;79.67;98941.59;5060977;28;20468;-54
2021/03/15 06:20:37;;;;;;;36.88;18.80;;;;;;;4.66;78.45;98938.22;5079060;28;20041;-55
2021/03/15 06:23:03;;;;;;;44.22;20.15;;;;;;;5.19;76.51;98942.59;5077782;28;20071;-55
2021/03/15 06:25:29;;;;;;;39.67;19.40;;;;;;;5.59;74.64;98941.00;5079438;28;20048;-55
2021/03/15 06:27:55;;;;;;;31.58;17.35;;;;;;;5.46;71.82;98934.34;5077517;28;20044;-55
2021/03/15 06:30:22;;;;;;;34.90;17.05;;;;;;;5.75;71.27;98930.31;5077362;28;20053;-55
2021/03/15 06:32:51;;;;;;;35.75;15.40;;;;;;;6.33;71.36;98934.34;5077620;28;20044;-55
2021/03/15 06:35:17;;;;;;;26.75;13.88;;;;;;;6.93;70.72;98931.25;5077356;28;20063;-55
2021/03/15 06:37:43;;;;;;;20.15;12.02;;;;;;;7.29;68.92;98935.59;5077456;28;20044;-55
2021/03/15 06:40:09;;;;;;;20.80;12.40;;;;;;;7.86;68.03;98927.09;5077326;28;20040;-55
2021/03/15 06:42:35;;;;;;;27.45;12.93;;;;;;;7.49;66.52;98933.31;5060976;28;20040;-55
2021/03/15 06:45:01;;;;;;;22.67;12.90;;;;;;;8.04;65.39;98931.78;5060828;28;20047;-56
2021/03/15 06:47:27;;;;;;;26.27;15.93;;;;;;;8.33;64.90;98936.16;5078273;28;20433;-56
2021/03/15 06:49:54;;;;;;;63.80;35.88;;;;;;;8.80;64.38;98938.25;5078257;28;20494;-56
2021/03/15 06:52:20;;;;;;;36.72;23.02;;;;;;;9.20;62.27;98937.81;5077772;28;20059;-56
2021/03/15 06:54:45;;;;;;;29.23;18.05;;;;;;;9.89;62.02;98934.59;5060555;28;20044;-57
2021/03/15 06:57:18;;;;;;;34.80;18.30;;;;;;;10.42;60.71;98937.84;5077832;28;20048;-56
2021/03/15 06:59:48;;;;;;;23.02;13.02;;;;;;;11.00;59.58;98939.94;5078076;28;20117;-56
2021/03/15 07:02:27;;;;;;;25.08;12.38;;;;;;;11.30;57.55;98937.81;5076886;28;20041;-57
2021/03/15 07:04:53;;;;;;;19.80;11.77;;;;;;;11.24;56.37;98935.47;5077639;28;20060;-57
2021/03/15 07:07:24;;;;;;;17.73;11.00;;;;;;;11.02;55.84;98929.38;5077620;28;20441;-57
2021/03/15 07:09:49;;;;;;;17.98;11.35;;;;;;;10.76;56.25;98926.94;5077516;28;20055;-57
2021/03/15 07:12:20;;;;;;;22.00;12.45;;;;;;;11.05;55.81;98932.75;5076820;28;20049;-58
2021/03/15 07:14:46;;;;;;;17.85;10.82;;;;;;;11.10;55.88;98943.03;5077426;28;20062;-57
2021/03/15 07:17:22;;;;;;;17.75;11.40;;;;;;;11.19;55.05;98940.91;5076567;28;20048;-57
2021/03/15 07:19:48;;;;;;;19.10;11.48;;;;;;;11.00;56.00;98939.94;5076036;28;20044;-57
2021/03/15 07:22:18;;;;;;;20.60;11.38;;;;;;;10.88;55.21;98940.44;5060134;28;20041;-57
2021/03/15 07:24:44;;;;;;;17.00;10.50;;;;;;;10.65;55.98;98936.09;5076340;28;20406;-59
2021/03/15 07:27:10;;;;;;;17.05;9.38;;;;;;;10.21;55.34;98936.88;5076294;28;20044;-57
2021/03/15 07:29:35;;;;;;;20.13;11.43;;;;;;;9.94;55.91;98938.72;5076194;28;20068;-57
2021/03/15 07:32:01;;;;;;;17.45;10.30;;;;;;;9.40;56.38;98937.16;5077056;28;20050;-57
2021/03/15 07:34:27;;;;;;;17.13;10.10;;;;;;;9.17;56.90;98940.53;5076995;28;20059;-57
2021/03/15 07:36:59;;;;;;;17.77;10.43;;;;;;;8.96;57.33;98934.25;5076958;28;20136;-57
2021/03/15 07:39:28;;;;;;;20.40;12.52;;;;;;;8.76;58.61;98954.91;5077575;28;20041;-56
2021/03/15 07:41:55;;;;;;;22.27;12.57;;;;;;;8.61;59.41;98944.06;5076071;28;20048;-57
2021/03/15 07:44:29;;;;;;;26.33;16.98;;;;;;;8.71;59.03;98947.25;5077137;28;20075;-57
2021/03/15 07:46:56;;;;;;;22.55;12.93;;;;;;;8.56;59.34;98945.94;5077127;28;20052;-57
2021/03/15 07:49:31;;;;;;;25.58;13.73;;;;;;;8.53;59.50;98947.78;5075869;28;20369;-57
2021/03/15 07:52:02;;;;;;;22.05;12.15;;;;;;;8.17;60.50;98951.41;5076706;28;20342;-56
2021/03/15 07:54:29;;;;;;;28.45;15.52;;;;;;;8.17;61.00;98946.19;5076937;28;20139;-57
2021/03/15 07:57:18;;;;;;;20.48;13.70;;;;;;;8.17;60.69;98953.16;5075770;28;20040;-57
2021/03/15 07:59:46;;;;;;;27.67;13.50;;;;;;;8.06;61.03;98957.81;5076567;28;20045;-57
2021/03/15 08:02:17;;;;;;;25.77;16.25;;;;;;;7.95;60.82;98945.09;5059425;28;20056;-56
2021/03/15 08:04:43;;;;;;;30.15;16.95;;;;;;;7.87;60.39;98949.69;5075691;28;20061;-56
2021/03/15 08:07:09;;;;;;;24.10;14.45;;;;;;;7.71;61.67;98955.28;5075889;28;20469;-57
2021/03/15 08:09:35;;;;;;;20.92;12.30;;;;;;;7.77;61.33;98951.69;5076713;28;20114;-57
2021/03/15 08:12:02;;;;;;;21.58;12.52;;;;;;;7.71;62.03;98949.22;5076328;28;20040;-57
2021/03/15 08:14:28;;;;;;;24.38;13.82;;;;;;;7.79;61.88;98947.25;5075548;28;20040;-57
2021/03/15 08:16:54;;;;;;;22.23;12.27;;;;;;;7.80;61.99;98940.28;5076891;28;20135;-56
2021/03/15 08:19:20;;;;;;;26.05;16.13;;;;;;;7.97;61.59;98948.53;5058891;28;20068;-57
2021/03/15 08:21:45;;;;;;;26.30;14.48;;;;;;;7.72;61.87;98948.31;5076335;28;20094;-57
2021/03/15 08:24:12;;;;;;;23.00;12.95;;;;;;;7.55;62.16;98946.19;5075448;28;20040;-57
2021/03/15 08:26:37;;;;;;;18.17;10.90;;;;;;;7.64;62.75;98951.16;5075631;28;20053;-57
2021/03/15 08:29:03;;;;;;;20.42;12.57;;;;;;;7.51;62.13;98947.16;5076162;28;20436;-57
2021/03/15 08:31:35;;;;;;;26.48;13.32;;;;;;;7.48;62.42;98947.25;5076017;28;20041;-57
2021/03/15 08:34:02;;;;;;;23.50;13.52;;;;;;;7.35;63.21;98945.84;5075493;28;20048;-57
2021/03/15 08:36:44;;;;;;;24.77;13.60;;;;;;;7.51;62.77;98949.75;5075528;28;20048;-58
2021/03/15 08:39:25;;;;;;;22.48;12.85;;;;;;;7.76;62.43;98947.34;5075294;28;20045;-57
2021/03/15 08:42:14;;;;;;;21.55;12.73;;;;;;;7.90;61.98;98944.38;5075939;28;20105;-57
2021/03/15 08:44:39;;;;;;;25.67;14.23;;;;;;;7.78;62.07;98942.94;5075956;28;20056;-57
2021/03/15 08:47:05;;;;;;;26.05;14.95;;;;;;;7.79;62.05;98949.88;5076018;28;20110;-57
2021/03/15 08:49:32;;;;;;;20.33;12.20;;;;;;;7.88;61.55;98941.78;5075368;28;20048;-57
2021/03/15 08:51:57;;;;;;;25.73;14.68;;;;;;;7.82;62.08;98936.75;5075934;28;20048;-57
2021/03/15 08:54:40;;;;;;;22.58;13.65;;;;;;;8.04;62.30;98943.97;5076533;28;20041;-57
2021/03/15 08:57:07;;;;;;;20.70;11.47;;;;;;;8.26;62.22;98946.84;5059364;28;20048;-57
2021/03/15 08:59:33;;;;;;;19.50;10.07;;;;;;;8.33;61.64;98946.59;5074890;28;20453;-57
2021/03/15 09:02:03;;;;;;;20.02;10.50;;;;;;;8.41;60.89;98952.47;5075223;28;20094;-57
2021/03/15 09:04:40;;;;;;;17.90;10.82;;;;;;;8.36;60.44;98948.28;5073956;28;20101;-57
2021/03/15 09:07:28;;;;;;;18.15;12.02;;;;;;;8.28;60.60;98945.88;5075023;28;20048;-57
2021/03/15 09:09:54;;;;;;;31.05;26.60;;;;;;;8.05;61.10;98941.31;5076363;28;20083;-57
2021/03/15 09:12:20;;;;;;;60.63;54.53;;;;;;;7.92;60.99;98932.13;5075704;28;20040;-57
2021/03/15 09:14:57;;;;;;;43.65;38.88;;;;;;;7.97;60.92;98940.69;5075752;28;20040;-57
2021/03/15 09:17:23;;;;;;;41.28;36.22;;;;;;;8.03;61.63;98935.31;5075635;28;20051;-57
2021/03/15 09:19:49;;;;;;;66.30;57.22;;;;;;;8.17;61.40;98934.91;5075074;28;20372;-57
2021/03/15 09:22:21;;;;;;;172.95;150.50;;;;;;;8.13;61.31;98934.13;5075576;28;20049;-57
2021/03/15 09:24:51;;;;;;;71.10;52.78;;;;;;;8.17;61.07;98932.28;5075646;28;20132;-57
2021/03/15 09:27:38;;;;;;;27.65;18.42;;;;;;;8.19;61.50;98933.13;5074969;28;20049;-57
2021/03/15 09:30:18;;;;;;;148.60;107.03;;;;;;;8.15;60.76;98936.69;5075862;28;20056;-57
2021/03/15 09:32:48;;;;;;;43.83;28.70;;;;;;;8.17;61.55;98933.16;5075444;28;20045;-57
2021/03/15 09:35:17;;;;;;;37.45;22.00;;;;;;;8.29;61.36;98925.88;5074753;28;20315;-57
2021/03/15 09:37:53;;;;;;;93.43;58.30;;;;;;;8.35;61.21;98928.28;5075433;28;20453;-57
2021/03/15 09:40:24;;;;;;;79.57;48.47;;;;;;;8.18;61.38;98928.78;5074923;28;20071;-57
2021/03/15 09:42:50;;;;;;;171.27;102.00;;;;;;;8.23;61.28;98933.88;5076391;28;20048;-57
2021/03/15 09:45:24;;;;;;;96.63;53.60;;;;;;;8.29;61.36;98933.69;5078546;28;20056;-57
2021/03/15 09:47:50;;;;;;;27.48;16.42;;;;;;;8.33;61.33;98922.28;5062348;28;20044;-57
2021/03/15 09:50:18;;;;;;;62.25;35.58;;;;;;;8.46;61.35;98922.78;5078418;28;20048;-57
2021/03/15 09:52:49;;;;;;;85.53;48.15;;;;;;;8.42;60.78;98917.66;5078371;28;20044;-57
2021/03/15 09:55:17;;;;;;;113.55;63.10;;;;;;;8.57;60.99;98916.31;5078385;28;20052;-57
2021/03/15 09:57:43;;;;;;;161.77;82.82;;;;;;;8.55;60.94;98918.13;5078296;28;20415;-57
2021/03/15 10:00:21;;;;;;;209.20;96.35;;;;;;;8.62;60.64;98916.19;5078707;28;20037;-57
2021/03/15 10:02:57;;;;;;;269.33;121.43;;;;;;;8.71;60.09;98918.53;5078250;28;20101;-57
2021/03/15 10:05:41;;;;;;;141.07;64.88;;;;;;;8.60;60.25;98920.59;5078878;28;20445;-57
2021/03/15 10:08:26;;;;;;;101.65;48.50;;;;;;;8.78;59.72;98920.03;5078937;28;20068;-57
2021/03/15 10:11:18;;;;;;;161.38;66.97;;;;;;;8.71;60.51;98922.84;5079125;28;20044;-57
2021/03/15 10:14:03;;;;;;;151.57;62.08;;;;;;;8.98;59.85;98914.16;5078891;28;20056;-57
2021/03/15 10:17:07;;;;;;;29.05;17.15;;;;;;;9.16;60.19;98907.47;5057067;28;20041;-58
2021/03/15 10:19:53;;;;;;;38.42;19.08;;;;;;;9.40;59.46;98902.31;5056589;28;20542;-58
2021/03/15 10:22:19;;;;;;;77.45;29.95;;;;;;;9.58;58.94;98899.06;5061912;28;20041;-58
2021/03/15 10:24:49;;;;;;;37.20;17.00;;;;;;;9.68;58.60;98895.19;5077559;28;20510;-58
2021/03/15 10:27:23;;;;;;;44.47;21.60;;;;;;;9.93;57.33;98894.31;5077576;28;20484;-58
2021/03/15 10:29:52;;;;;;;50.78;20.17;;;;;;;9.88;56.57;98897.13;5077568;28;20040;-58
2021/03/15 10:32:19;;;;;;;39.20;18.55;;;;;;;10.01;55.78;98894.91;5077660;28;20056;-58
2021/03/15 10:34:59;;;;;;;118.72;52.35;;;;;;;9.94;55.59;98899.47;5060872;28;20041;-58
2021/03/15 10:37:27;;;;;;;78.07;39.30;;;;;;;9.99;56.46;98901.94;5077359;28;20117;-58
2021/03/15 10:40:04;;;;;;;95.60;38.30;;;;;;;9.94;55.29;98894.25;5062261;28;20063;-58
2021/03/15 10:42:34;;;;;;;38.53;19.42;;;;;;;9.84;56.35;98898.13;5078435;28;20056;-58
2021/03/15 10:45:00;;;;;;;399.48;170.18;;;;;;;10.00;56.59;98893.19;5077150;28;20511;-58
2021/03/15 10:47:30;;;;;;;319.48;188.45;;;;;;;10.00;55.77;98882.72;5077400;28;20055;-58
2021/03/15 10:49:57;;;;;;;75.78;35.35;;;;;;;10.20;56.30;98880.19;5077389;28;20063;-58
2021/03/15 10:52:46;;;;;;;49.38;29.83;;;;;;;10.39;55.17;98885.59;5077759;28;20056;-58
2021/03/15 10:55:20;;;;;;;58.03;47.08;;;;;;;10.26;53.97;98876.53;5075888;28;20048;-58
2021/03/15 10:58:09;;;;;;;44.03;30.55;;;;;;;10.18;54.53;98876.78;5077322;28;20048;-58
2021/03/15 11:00:45;;;;;;;146.05;116.05;;;;;;;10.44;54.48;98883.69;5063163;28;20036;-58
2021/03/15 11:03:24;;;;;;;1029.25;456.85;;;;;;;10.51;54.50;98877.28;5060529;28;20357;-58
2021/03/15 11:06:15;;;;;;;85.38;36.92;;;;;;;10.70;53.55;98873.94;5060694;28;20411;-58
2021/03/15 11:08:58;;;;;;;123.07;68.07;;;;;;;10.77;53.69;98875.38;5077007;28;20052;-58
2021/03/15 11:11:30;;;;;;;237.82;152.38;;;;;;;10.81;52.14;98881.34;5077743;28;20045;-58
2021/03/15 11:14:14;;;;;;;60.60;31.40;;;;;;;10.35;52.64;98876.19;5076936;28;20064;-58
2021/03/15 11:17:01;;;;;;;38.53;22.75;;;;;;;10.24;53.11;98873.09;5076564;28;20049;-58
2021/03/15 11:19:33;;;;;;;24.20;17.30;;;;;;;10.11;53.49;98864.88;5045060;28;20037;-58
2021/03/15 11:21:59;;;;;;;223.70;80.25;;;;;;;10.12;53.92;98863.09;5059843;28;20044;-58
2021/03/15 11:24:33;;;;;;;136.55;53.70;;;;;;;10.13;52.93;98862.16;5045769;28;20365;-58
2021/03/15 11:27:14;;;;;;;54.90;30.88;;;;;;;10.24;53.80;98858.25;5076725;28;20067;-58
2021/03/15 11:29:50;;;;;;;76.35;41.80;;;;;;;10.28;53.88;98857.25;5061307;28;20465;-58
2021/03/15 11:32:25;;;;;;;53.30;29.27;;;;;;;10.51;53.59;98858.94;5030868;28;20087;-58
2021/03/15 11:35:00;;;;;;;48.30;24.05;;;;;;;10.53;51.65;98848.44;5061245;28;20044;-58